CES6787 ZLXY-ZSJX
Flight info
| Callsign | CES6787 |
|---|---|
| Flight time | N/A |
| Altitude | 35100 |
| Route | PUMUR W286 SUDGO H132 P234/K0848S1070 H36 SNF W269 OLPOV B213 WHA R343 SAGUD W50 XSH H17 JDZ H26 TXN G204 ELNEX A599 KAKIS |
| Aircraft | A20N/M-SDE1E2E3FGHIM3RWY/LB1 |
Departure
| Time | 2026-04-19 09:05 |
|---|---|
| Airport | Xi'an Xianyang International Airport (ZLXY) |
Arrival
| Time | N/A |
|---|---|
| Airport | Jiaxing Nanhu Airport (ZSJX) |
| Time | Latitude | Longitude | Altitude | Speed | Heading |
|---|---|---|---|---|---|
| 2026-04-19 08:45 | 34.46204 | 108.77726 | 1574 ft | 0 kts | 139° |
| 2026-04-19 08:50 | 34.46207 | 108.77722 | 1574 ft | 2 kts | 139° |
| 2026-04-19 08:51 | 34.46218 | 108.77710 | 1574 ft | 2 kts | 139° |
| 2026-04-19 08:51 | 34.46230 | 108.77698 | 1574 ft | 2 kts | 139° |
| 2026-04-19 08:51 | 34.46241 | 108.77687 | 1574 ft | 2 kts | 139° |
| 2026-04-19 08:51 | 34.46253 | 108.77676 | 1574 ft | 2 kts | 161° |
| 2026-04-19 08:52 | 34.46268 | 108.77674 | 1574 ft | 2 kts | 195° |
| 2026-04-19 08:52 | 34.46279 | 108.77681 | 1574 ft | 0 kts | 225° |
| 2026-04-19 08:52 | 34.46284 | 108.77687 | 1574 ft | 1 kts | 230° |
| 2026-04-19 08:52 | 34.46285 | 108.77689 | 1574 ft | 0 kts | 229° |
| 2026-04-19 08:55 | 34.46283 | 108.77685 | 1574 ft | 1 kts | 229° |
| 2026-04-19 08:55 | 34.46272 | 108.77670 | 1574 ft | 3 kts | 229° |
| 2026-04-19 08:55 | 34.46252 | 108.77644 | 1574 ft | 5 kts | 227° |
| 2026-04-19 08:55 | 34.46223 | 108.77604 | 1574 ft | 7 kts | 229° |
| 2026-04-19 08:56 | 34.46186 | 108.77554 | 1574 ft | 9 kts | 228° |
| 2026-04-19 08:56 | 34.46140 | 108.77490 | 1574 ft | 11 kts | 229° |
| 2026-04-19 08:56 | 34.46084 | 108.77412 | 1574 ft | 13 kts | 229° |
| 2026-04-19 08:56 | 34.46014 | 108.77316 | 1574 ft | 16 kts | 229° |
| 2026-04-19 08:57 | 34.45935 | 108.77206 | 1574 ft | 18 kts | 229° |
| 2026-04-19 08:57 | 34.45849 | 108.77087 | 1574 ft | 19 kts | 229° |
| 2026-04-19 08:57 | 34.45768 | 108.77026 | 1574 ft | 13 kts | 153° |
| 2026-04-19 08:57 | 34.45695 | 108.77099 | 1574 ft | 13 kts | 140° |
| 2026-04-19 08:58 | 34.45626 | 108.77149 | 1574 ft | 10 kts | 196° |
| 2026-04-19 08:58 | 34.45572 | 108.77087 | 1574 ft | 11 kts | 229° |
| 2026-04-19 08:58 | 34.45515 | 108.77008 | 1574 ft | 12 kts | 228° |
| 2026-04-19 08:58 | 34.45454 | 108.76923 | 1574 ft | 14 kts | 229° |
| 2026-04-19 08:59 | 34.45382 | 108.76824 | 1574 ft | 16 kts | 228° |
| 2026-04-19 08:59 | 34.45306 | 108.76719 | 1574 ft | 16 kts | 229° |
| 2026-04-19 08:59 | 34.45231 | 108.76622 | 1574 ft | 13 kts | 207° |
| 2026-04-19 08:59 | 34.45147 | 108.76667 | 1574 ft | 14 kts | 139° |
| 2026-04-19 09:00 | 34.45067 | 108.76751 | 1574 ft | 15 kts | 139° |
| 2026-04-19 09:00 | 34.45012 | 108.76860 | 1574 ft | 15 kts | 109° |
| 2026-04-19 09:00 | 34.44976 | 108.76985 | 1574 ft | 15 kts | 109° |
| 2026-04-19 09:00 | 34.44940 | 108.77113 | 1574 ft | 15 kts | 109° |
| 2026-04-19 09:01 | 34.44905 | 108.77240 | 1574 ft | 16 kts | 109° |
| 2026-04-19 09:01 | 34.44840 | 108.77344 | 1574 ft | 15 kts | 137° |
| 2026-04-19 09:01 | 34.44757 | 108.77433 | 1574 ft | 15 kts | 139° |
| 2026-04-19 09:01 | 34.44673 | 108.77522 | 1574 ft | 16 kts | 139° |
| 2026-04-19 09:02 | 34.44589 | 108.77611 | 1574 ft | 16 kts | 138° |
| 2026-04-19 09:02 | 34.44504 | 108.77702 | 1574 ft | 16 kts | 139° |
| 2026-04-19 09:02 | 34.44418 | 108.77793 | 1574 ft | 16 kts | 141° |
| 2026-04-19 09:02 | 34.44351 | 108.77876 | 1574 ft | 13 kts | 110° |
| 2026-04-19 09:03 | 34.44369 | 108.77930 | 1574 ft | 8 kts | 41° |
| 2026-04-19 09:03 | 34.44409 | 108.77982 | 1574 ft | 9 kts | 50° |
| 2026-04-19 09:03 | 34.44456 | 108.78050 | 1574 ft | 11 kts | 61° |
| 2026-04-19 09:03 | 34.44419 | 108.78123 | 1574 ft | 11 kts | 145° |
| 2026-04-19 09:04 | 34.44360 | 108.78187 | 1574 ft | 8 kts | 139° |
| 2026-04-19 09:04 | 34.44315 | 108.78169 | 1574 ft | 8 kts | 229° |
| 2026-04-19 09:04 | 34.44230 | 108.78050 | 1574 ft | 47 kts | 229° |
| 2026-04-19 09:04 | 34.43851 | 108.77527 | 1574 ft | 114 kts | 228° |
| 2026-04-19 09:05 | 34.43198 | 108.76629 | 1619 ft | 162 kts | 230° |
| 2026-04-19 09:05 | 34.42475 | 108.75660 | 2171 ft | 160 kts | 230° |
| 2026-04-19 09:05 | 34.41736 | 108.74686 | 2690 ft | 165 kts | 230° |
| 2026-04-19 09:05 | 34.40991 | 108.73719 | 3170 ft | 169 kts | 234° |
| 2026-04-19 09:06 | 34.40177 | 108.72636 | 3575 ft | 178 kts | 233° |
| 2026-04-19 09:06 | 34.39320 | 108.71439 | 3881 ft | 195 kts | 234° |
| 2026-04-19 09:06 | 34.38395 | 108.70129 | 4168 ft | 214 kts | 232° |
| 2026-04-19 09:06 | 34.37381 | 108.68710 | 4492 ft | 234 kts | 233° |
| 2026-04-19 09:07 | 34.36277 | 108.67137 | 4908 ft | 251 kts | 233° |
| 2026-04-19 09:07 | 34.35138 | 108.65540 | 5686 ft | 252 kts | 232° |
| 2026-04-19 09:07 | 34.33983 | 108.63945 | 6504 ft | 252 kts | 232° |
| 2026-04-19 09:07 | 34.32799 | 108.62365 | 7280 ft | 254 kts | 231° |
| 2026-04-19 09:08 | 34.31609 | 108.60814 | 8034 ft | 257 kts | 230° |
| 2026-04-19 09:08 | 34.30373 | 108.59218 | 8798 ft | 259 kts | 230° |
| 2026-04-19 09:08 | 34.29142 | 108.57626 | 9535 ft | 261 kts | 230° |
| 2026-04-19 09:08 | 34.27900 | 108.56016 | 10267 ft | 263 kts | 230° |
| 2026-04-19 09:09 | 34.26661 | 108.54397 | 11096 ft | 261 kts | 230° |
| 2026-04-19 09:09 | 34.25360 | 108.52908 | 11935 ft | 260 kts | 214° |
| 2026-04-19 09:09 | 34.23684 | 108.52080 | 12726 ft | 263 kts | 193° |
| 2026-04-19 09:09 | 34.21855 | 108.51793 | 13397 ft | 268 kts | 189° |
| 2026-04-19 09:10 | 34.20002 | 108.51560 | 14162 ft | 269 kts | 191° |
| 2026-04-19 09:10 | 34.18147 | 108.51322 | 14910 ft | 270 kts | 192° |
| 2026-04-19 09:10 | 34.16272 | 108.51069 | 15617 ft | 272 kts | 192° |
| 2026-04-19 09:10 | 34.14545 | 108.50832 | 16192 ft | 277 kts | 189° |
| 2026-04-19 09:11 | 34.12924 | 108.50990 | 16698 ft | 291 kts | 171° |
| 2026-04-19 09:11 | 34.08816 | 108.56839 | 17859 ft | 359 kts | 116° |
| 2026-04-19 09:12 | 34.07946 | 108.59699 | 18125 ft | 374 kts | 114° |
| 2026-04-19 09:12 | 34.07008 | 108.62724 | 18378 ft | 389 kts | 115° |
| 2026-04-19 09:12 | 34.06024 | 108.65810 | 18614 ft | 403 kts | 115° |
| 2026-04-19 09:12 | 34.04979 | 108.69039 | 18849 ft | 417 kts | 115° |
| 2026-04-19 09:13 | 34.04057 | 108.71843 | 19049 ft | 428 kts | 116° |
| 2026-04-19 09:13 | 34.02825 | 108.75549 | 19498 ft | 436 kts | 115° |
| 2026-04-19 09:13 | 34.01698 | 108.78966 | 20049 ft | 440 kts | 115° |
| 2026-04-19 09:13 | 34.00684 | 108.82048 | 20571 ft | 441 kts | 115° |
| 2026-04-19 09:14 | 33.97069 | 108.93039 | 22184 ft | 453 kts | 114° |
| 2026-04-19 09:14 | 33.95917 | 108.96549 | 22676 ft | 456 kts | 114° |
| 2026-04-19 09:15 | 33.95126 | 108.98959 | 23001 ft | 458 kts | 113° |
| 2026-04-19 09:15 | 33.93573 | 109.03684 | 23616 ft | 462 kts | 113° |
| 2026-04-19 09:15 | 33.91311 | 109.10551 | 24450 ft | 469 kts | 113° |
| 2026-04-19 09:16 | 33.90034 | 109.14426 | 24892 ft | 471 kts | 113° |
| 2026-04-19 09:16 | 33.88818 | 109.18104 | 25299 ft | 474 kts | 113° |
| 2026-04-19 09:16 | 33.87598 | 109.21787 | 25698 ft | 477 kts | 113° |
| 2026-04-19 09:16 | 33.86367 | 109.25502 | 26086 ft | 480 kts | 113° |
| 2026-04-19 09:17 | 33.85127 | 109.29245 | 26476 ft | 483 kts | 113° |
| 2026-04-19 09:17 | 33.83876 | 109.33021 | 26917 ft | 484 kts | 113° |
| 2026-04-19 09:17 | 33.82651 | 109.36717 | 27456 ft | 482 kts | 113° |
| 2026-04-19 09:17 | 33.81395 | 109.40494 | 28016 ft | 480 kts | 113° |
| 2026-04-19 09:18 | 33.80576 | 109.42951 | 28366 ft | 479 kts | 112° |
| 2026-04-19 09:18 | 33.78895 | 109.47867 | 29024 ft | 477 kts | 117° |
| 2026-04-19 09:18 | 33.77131 | 109.51208 | 29465 ft | 472 kts | 132° |
| 2026-04-19 09:18 | 33.74786 | 109.53936 | 29921 ft | 465 kts | 146° |
| 2026-04-19 09:19 | 33.72053 | 109.55877 | 30355 ft | 456 kts | 162° |
| 2026-04-19 09:19 | 33.69178 | 109.56963 | 30714 ft | 450 kts | 173° |
| 2026-04-19 09:19 | 33.66073 | 109.57456 | 30930 ft | 448 kts | 183° |
| 2026-04-19 09:19 | 33.62937 | 109.57413 | 31095 ft | 450 kts | 187° |
| 2026-04-19 09:20 | 33.59797 | 109.57259 | 31330 ft | 452 kts | 187° |
| 2026-04-19 09:20 | 33.56655 | 109.57105 | 31660 ft | 453 kts | 187° |
| 2026-04-19 09:20 | 33.53505 | 109.56973 | 32078 ft | 452 kts | 187° |
| 2026-04-19 09:20 | 33.50358 | 109.56855 | 32489 ft | 450 kts | 187° |
| 2026-04-19 09:21 | 33.47259 | 109.56750 | 32890 ft | 449 kts | 187° |
| 2026-04-19 09:21 | 33.44105 | 109.56645 | 33256 ft | 447 kts | 187° |
| 2026-04-19 09:21 | 33.40998 | 109.56544 | 33582 ft | 447 kts | 187° |
| 2026-04-19 09:21 | 33.37909 | 109.56444 | 33874 ft | 447 kts | 187° |
| 2026-04-19 09:22 | 33.35835 | 109.56375 | 34051 ft | 448 kts | 187° |
| 2026-04-19 09:22 | 33.31656 | 109.56239 | 34382 ft | 449 kts | 187° |
| 2026-04-19 09:22 | 33.28547 | 109.56137 | 34628 ft | 449 kts | 187° |
| 2026-04-19 09:22 | 33.25410 | 109.56035 | 34886 ft | 449 kts | 187° |
| 2026-04-19 09:23 | 33.22291 | 109.55933 | 35099 ft | 450 kts | 187° |
| 2026-04-19 09:23 | 33.15985 | 109.55724 | 35178 ft | 450 kts | 187° |
| 2026-04-19 09:24 | 33.09745 | 109.55524 | 35165 ft | 451 kts | 187° |
| 2026-04-19 09:24 | 33.03488 | 109.55322 | 35151 ft | 438 kts | 187° |
| 2026-04-19 09:25 | 32.97464 | 109.55130 | 35137 ft | 431 kts | 187° |
| 2026-04-19 09:25 | 32.91483 | 109.54929 | 35130 ft | 432 kts | 187° |
| 2026-04-19 09:26 | 32.85785 | 109.54741 | 35130 ft | 432 kts | 187° |
| 2026-04-19 09:26 | 32.79766 | 109.54545 | 35137 ft | 433 kts | 187° |
| 2026-04-19 09:27 | 32.73708 | 109.54347 | 35129 ft | 433 kts | 187° |
| 2026-04-19 09:27 | 32.67632 | 109.54153 | 35129 ft | 433 kts | 187° |
| 2026-04-19 09:28 | 32.61606 | 109.53958 | 35141 ft | 434 kts | 187° |
| 2026-04-19 09:28 | 32.55592 | 109.53764 | 35154 ft | 434 kts | 187° |
| 2026-04-19 09:29 | 32.49569 | 109.53571 | 35161 ft | 433 kts | 187° |
| 2026-04-19 09:29 | 32.43510 | 109.53374 | 35161 ft | 434 kts | 187° |
| 2026-04-19 09:30 | 32.37468 | 109.53181 | 35164 ft | 435 kts | 186° |
| 2026-04-19 09:30 | 32.31409 | 109.52987 | 35156 ft | 434 kts | 186° |
| 2026-04-19 09:31 | 32.25353 | 109.52794 | 35142 ft | 434 kts | 187° |
| 2026-04-19 09:31 | 32.19306 | 109.52600 | 35144 ft | 435 kts | 186° |
| 2026-04-19 09:32 | 32.13226 | 109.52406 | 35150 ft | 435 kts | 186° |
| 2026-04-19 09:32 | 32.07138 | 109.52212 | 35167 ft | 436 kts | 186° |
| 2026-04-19 09:33 | 32.01024 | 109.52019 | 35165 ft | 435 kts | 186° |
| 2026-04-19 09:33 | 31.94947 | 109.51838 | 35167 ft | 436 kts | 185° |
| 2026-04-19 09:34 | 31.88873 | 109.52188 | 35158 ft | 440 kts | 179° |
| 2026-04-19 09:34 | 31.82760 | 109.53365 | 35157 ft | 443 kts | 173° |
| 2026-04-19 09:35 | 31.76821 | 109.54792 | 35147 ft | 443 kts | 173° |
| 2026-04-19 09:35 | 31.70766 | 109.56237 | 35138 ft | 443 kts | 173° |
| 2026-04-19 09:36 | 31.64684 | 109.57680 | 35137 ft | 443 kts | 173° |
| 2026-04-19 09:36 | 31.59658 | 109.58873 | 35130 ft | 442 kts | 173° |
| 2026-04-19 09:37 | 31.52586 | 109.60545 | 35138 ft | 441 kts | 173° |
| 2026-04-19 09:37 | 31.46570 | 109.61957 | 35130 ft | 441 kts | 173° |
| 2026-04-19 09:38 | 31.40550 | 109.63366 | 35106 ft | 441 kts | 173° |
| 2026-04-19 09:38 | 31.34491 | 109.64786 | 35093 ft | 441 kts | 173° |
| 2026-04-19 09:39 | 31.28437 | 109.66202 | 35070 ft | 439 kts | 173° |
| 2026-04-19 09:39 | 31.22551 | 109.67578 | 35041 ft | 439 kts | 173° |
| 2026-04-19 09:40 | 31.16557 | 109.69183 | 35022 ft | 444 kts | 165° |
| 2026-04-19 09:40 | 31.11034 | 109.72525 | 35035 ft | 454 kts | 147° |
| 2026-04-19 09:41 | 31.06527 | 109.77738 | 35021 ft | 461 kts | 129° |
| 2026-04-19 09:41 | 31.03936 | 109.83150 | 35019 ft | 466 kts | 113° |
| 2026-04-19 09:42 | 31.01535 | 109.91579 | 35021 ft | 467 kts | 109° |
| 2026-04-19 09:42 | 30.99513 | 109.98760 | 35017 ft | 466 kts | 110° |
| 2026-04-19 09:43 | 30.97487 | 110.05896 | 35021 ft | 466 kts | 110° |
| 2026-04-19 09:43 | 30.95789 | 110.11911 | 35046 ft | 468 kts | 110° |
| 2026-04-19 09:44 | 30.93412 | 110.20277 | 35071 ft | 470 kts | 110° |
| 2026-04-19 09:44 | 30.91398 | 110.27341 | 35091 ft | 470 kts | 110° |
| 2026-04-19 09:45 | 30.89344 | 110.34531 | 35093 ft | 471 kts | 110° |
| 2026-04-19 09:45 | 30.87252 | 110.41829 | 35091 ft | 472 kts | 110° |
| 2026-04-19 09:46 | 30.85176 | 110.49003 | 35093 ft | 473 kts | 110° |
| 2026-04-19 09:46 | 30.83432 | 110.55027 | 35088 ft | 474 kts | 110° |
| 2026-04-19 09:47 | 30.80978 | 110.63488 | 35065 ft | 475 kts | 110° |
| 2026-04-19 09:47 | 30.78904 | 110.70622 | 35040 ft | 474 kts | 111° |
| 2026-04-19 09:48 | 30.76761 | 110.77980 | 35014 ft | 475 kts | 110° |
| 2026-04-19 09:48 | 30.74990 | 110.84046 | 35020 ft | 478 kts | 111° |
| 2026-04-19 09:49 | 30.72484 | 110.92602 | 35036 ft | 479 kts | 110° |
| 2026-04-19 09:49 | 30.70344 | 110.99905 | 35046 ft | 479 kts | 110° |
| 2026-04-19 09:50 | 30.68263 | 111.06993 | 35043 ft | 478 kts | 110° |